• Join FlightAware (Why Join?)
  • Login
  • US Flag 
08:31PM EDT


 

Airport Tracker/Info


-or-


 

Live Flight TrackerFlight Track Log ✈ FLG4262 ✈ 03-Apr-2014 ✈ KDTW - KBGM

Flight Track Log - Related Links

Times and Time Zones

All times are in EDT time to prevent confusion due to time zone crossing. See the FLG4262 flight status page for this flight to view local times or setup timezone preferences in your user account.

Time Position Orientation Groundspeed Altitude Reporting Facility
EDT Latitude Longitude Course Direction KTS MPH feet Rate Location/Type
03:56PM 42.2294 -83.3367 56° Northeast 142 163 1,500  Level Cleveland Center
03:57PM 42.2653 -83.3050 33° Northeast 194 223 3,400 1,680 Climbing Cleveland Center
03:58PM 42.2850 -83.2897 30° Northeast 186 214 4,000 1,260 Climbing Cleveland Center
03:58PM 42.3061 -83.2400 60° Northeast 256 295 4,700 1,800 Climbing Cleveland Center
03:59PM 42.3097 -83.2058 82° East 229 264 5,900 2,700 Climbing Cleveland Center
03:59PM 42.3153 -83.1453 83° East 261 300 7,500 3,240 Climbing Cleveland Center
04:00PM 42.3214 -83.0864 82° East 263 303 9,300 1,500 Climbing Cleveland Center
04:01PM 42.3072 -82.9772 100° East 300 345 10,000 960 Climbing Cleveland Center
04:02PM 42.3594 -82.4645 56° Northeast  Level FlightAware Approximate
04:02PM 42.3042 -82.8472 92° East 332 382 11,300  Level Cleveland Center
04:03PM 42.3228 -82.7281 78° East 342 394 13,100 1,560 Climbing Cleveland Center
04:04PM 42.3433 -82.6011 78° East 346 398 14,600 1,500 Climbing Cleveland Center
04:05PM 42.3650 -82.4694 77° East 356 410 16,200 1,380 Climbing Cleveland Center
04:06PM 42.3633 -82.3006 91° East 371 427 17,500 1,200 Climbing Cleveland Center
04:07PM 42.3558 -82.1528 94° East 391 450 18,700 1,140 Climbing Cleveland Center
04:08PM 42.3497 -81.9892 93° East 396 456 19,900 1,080 Climbing Cleveland Center
04:09PM 42.3411 -81.8333 94° East 407 468 21,000 960 Climbing Cleveland Center
04:10PM 42.3344 -81.6725 93° East 421 484 21,900 780 Climbing Cleveland Center
04:11PM 42.3269 -81.5108 94° East 425 489 22,700 720 Climbing Cleveland Center
04:12PM 42.3194 -81.3456 93° East 430 495 23,400 660 Climbing Cleveland Center
04:13PM 42.3111 -81.1778 94° East 440 506 24,100 600 Climbing Cleveland Center
04:14PM 42.3011 -81.0083 95° East 444 511 24,700 540 Climbing Cleveland Center
04:15PM 42.2931 -80.8336 94° East 455 524 25,300 540 Climbing Cleveland Center
04:16PM 42.2817 -80.6314 94° East 457 526 25,900 480 Climbing Cleveland Center
04:17PM 42.2717 -80.4525 94° East 468 539 26,400 480 Climbing Cleveland Center
04:18PM 42.2608 -80.2739 95° East 473 544 26,900 480 Climbing Cleveland Center
04:19PM 42.2506 -80.0947 94° East 474 545 27,400 480 Climbing Cleveland Center
04:21PM 42.2408 -79.9139 94° East 474 545 27,900 480 Climbing Cleveland Center
04:22PM 42.2514 -79.7339 85° East 480 552 28,400 480 Climbing Cleveland Center
04:23PM 42.2622 -79.5558 85° East 480 552 28,900 240 Climbing Cleveland Center
04:24PM 42.2686 -79.3372 88° East 486 559 29,000  Climbing Cleveland Center
04:25PM 42.2669 -79.1492 91° East 501 577 29,000 -420 Level Cleveland Center
04:26PM 42.2653 -78.9567 91° East 515 593 28,200 -540 Descending Cleveland Center
04:27PM 42.2639 -78.7733 91° East 524 603 28,000 -960 Descending Cleveland Center
04:28PM 42.2336 -78.5436 100° East 523 602 26,300 -960 Descending Cleveland Center
04:29PM 42.2094 -78.3586 100° East 514 592 26,000 -240 Descending Cleveland Center
04:30PM 42.1897 -78.1806 98° East 494 568 25,900 -780 Descending Cleveland Center
04:31PM 42.1800 -78.0039 94° East 484 557 24,400 -1,500 Descending Cleveland Center
04:32PM 42.1844 -77.8317 88° East 469 540 22,900 -1,620 Descending Cleveland Center
04:33PM 42.1881 -77.6394 88° East 439 505 21,100 -1,620 Descending Cleveland Center
04:34PM 42.1906 -77.4781 89° East 436 502 19,600 -1,500 Descending Cleveland Center
04:35PM 42.1928 -77.3172 89° East 435 501 18,100 -1,260 Descending Cleveland Center
04:36PM 42.1958 -77.1581 88° East 432 497 17,000 -1,020 Descending Cleveland Center
04:37PM 42.1986 -76.9792 89° East 403 464 16,000 -1,200 Descending Cleveland Center
04:38PM 42.1992 -76.8417 90° East 373 429 14,500 -1,440 Descending Cleveland Center
04:39PM 42.2017 -76.7094 88° East 360 414 13,000 -1,500 Descending Cleveland Center
04:40PM 42.2022 -76.5889 90° East 328 377 11,500 -1,680 Descending Cleveland Center
04:41PM 42.1786 -76.4781 106° East 312 359 9,600 -1,980 Descending Cleveland Center
04:42PM 42.1611 -76.3689 102° East 286 329 7,500 -2,040 Descending Cleveland Center
04:43PM 42.1436 -76.2714 104° East 274 315 5,500 -1,260 Descending Cleveland Center
04:44PM 42.1275 -76.1681 102° East 237 273 5,000 -300 Descending Cleveland Center
04:45PM 42.1194 -76.1192 103° East 233 268 5,000  Level New York Center
04:46PM 42.0869 -76.0522 123° Southeast 211 243 5,000  Level New York Center
04:47PM 42.0650 -75.9864 114° Southeast 200 230 5,000  Level New York Center
04:48PM 42.0800 -75.9289 71° East 166 191 5,000 -180 Level New York Center
04:49PM 42.1256 -75.9297 359° North 107 123 4,700 -1,140 Descending New York Center
04:50PM 42.1558 -75.9517 332° Northwest 111 128 2,800 -1,320 Descending New York Center
04:51PM 42.1869 -75.9567 353° North 111 128 2,100 -720 Descending New York Center